Wembury, United Kingdom
Current Conditions -  °F | °C
As of 7:50 PM on Wednesday 28 Jan 2015 (Local Time) from EGTE Reporting Station
Few Clouds Few Clouds  
Wind Chill: 31°   Ceiling: Unl
Heat Index: 37°   Visibility: 6mi
Dew Point: 32°   Wind: 8mph
Humidity: 81%   Direction: 330°NNW
Pressure: 29.71"   Gusts: NA
Location:  50.32°N, 4.08°W
Report Text: EGTE 281950Z 33007KT 9999 FEW030 03/00 Q1006
Loading
Personal Weather Stations






























Interactive Weather Map New forecast layout! Learn more

10-Day Weather Forecast

Advertisements
Track Severe Weather on mobile